State Farm, VA (23160)

11:59 PM EST on December 04, 2016 (GMT -0500)
Fox Downs | | Change Station

Elev 340 ft 37.69 °N, 77.77 °W | Updated 2 seconds ago

Rain
Rain Mist
39.0 °F
Feels Like 39 °F
N
0.0
Wind Variable Wind from North
Gusts 0.0 mph

Today
High -- | Low -- °F
--% Chance of Precip.
Yesterday
High -- | Low -- °F
Precip. -- in
Pressure 30.12 in
Visibility 2.0 miles
Clouds Mostly Cloudy 500 ft
Mostly Cloudy 1200 ft
Overcast 2000 ft
Windchill 39 °F
Dew Point 38 °F
Humidity 97%
Rainfall 0.13 in
Snow Depth Not available.
7:10 AM 4:52 PM
Waxing Crescent, 28% visible
METAR KOFP 050454Z AUTO VRB03KT 2SM RA BR BKN005 BKN012 OVC020 04/03 A3011 RMK AO2 RAB06 SLP197 P0003 T00390028 400671011
Pressure 30.12 in
Visibility 2.0 miles
Clouds Mostly Cloudy 500 ft
Mostly Cloudy 1200 ft
Overcast 2000 ft
Windchill 39 °F
Dew Point 38 °F
Humidity 97%
Rainfall 0.13 in
Snow Depth Not available.
7:10 AM 4:52 PM
Waxing Crescent, 28% visible
METAR KOFP 050454Z AUTO VRB03KT 2SM RA BR BKN005 BKN012 OVC020 04/03 A3011 RMK AO2 RAB06 SLP197 P0003 T00390028 400671011

10-Day Weather Forecast

Almanac

Astronomy

Dec. 04, 2016 Rise Set
Actual Time
Civil Twilight
Nautical Twilight
Astronomical Twilight
Moon
Length of Visible Light
Length of Day
Tomorrow will be .
, % of the Moon is Illuminated

Today's Extremes

State Highs State Lows

Community

WunderPhotos

Upload Photos

1,955,763 photos uploaded!

WunderBlog® & News

Nearby

Air Quality

  Air Quality AQ Index Pollutant
Not available.

Snow Depth

Station Depth Elevation

Earthquake Activity

City Distance Mag. Time & Date
Minimum magnitude displayed is 2.5.

Coastal Water Temperatures

Place Temperature

Stations

Nearby Weather Stations

Station Location Temp. Windchill Dew Point Humidity Wind Precip. Elev Updated Type
                   

Watches & Warnings

There are currently no watches in effect.